createdAt,value
2022-08-25T00:04:36.674Z,5.67
2022-08-25T00:10:40.047Z,2.90
2022-08-25T00:16:43.412Z,4.93
2022-08-25T00:22:45.403Z,4.33
2022-08-25T00:28:47.365Z,4.63
2022-08-25T00:34:49.412Z,3.60
2022-08-25T00:41:05.842Z,5.50
2022-08-25T00:47:09.922Z,6.30
2022-08-25T00:53:12.297Z,4.23
2022-08-25T00:59:16.423Z,6.40
2022-08-25T01:05:19.633Z,4.80
2022-08-25T01:11:21.818Z,5.97
2022-08-25T01:17:27.844Z,3.80
2022-08-25T01:23:30.144Z,5.43
2022-08-25T01:29:33.080Z,4.83
2022-08-25T01:35:36.455Z,3.30
2022-08-25T01:42:11.656Z,4.17
2022-08-25T01:48:15.422Z,15.33
2022-08-25T01:54:17.750Z,4.00
2022-08-25T02:00:21.315Z,5.03
2022-08-25T02:06:32.482Z,4.20
2022-08-25T02:12:36.740Z,5.67
2022-08-25T02:18:38.695Z,4.13
2022-08-25T02:24:40.663Z,4.53
2022-08-25T02:30:43.571Z,9.70
2022-08-25T02:36:45.681Z,6.00
2022-08-25T02:42:49.905Z,5.60
2022-08-25T02:48:53.305Z,6.20
2022-08-25T02:54:55.543Z,7.97
2022-08-25T03:00:57.777Z,4.70
2022-08-25T03:06:59.982Z,4.60
2022-08-25T03:13:02.007Z,5.70
2022-08-25T03:19:04.944Z,5.87
2022-08-25T03:25:28.010Z,10.10
2022-08-25T03:31:30.014Z,6.80
2022-08-25T03:37:32.101Z,7.80
2022-08-25T03:43:34.081Z,5.77
2022-08-25T03:49:36.049Z,5.97
2022-08-25T03:55:38.049Z,5.20
2022-08-25T04:01:43.050Z,11.17
2022-08-25T04:07:45.036Z,5.10
2022-08-25T04:13:48.137Z,9.20
2022-08-25T04:19:50.750Z,5.43
2022-08-25T04:25:53.030Z,6.03
2022-08-25T04:31:55.812Z,5.20
2022-08-25T04:37:57.947Z,6.20
2022-08-25T04:44:01.306Z,5.97
2022-08-25T04:50:03.787Z,6.57
2022-08-25T04:56:09.697Z,7.93
2022-08-25T05:02:11.634Z,14.17
2022-08-25T05:08:13.778Z,5.13
2022-08-25T05:14:21.649Z,4.63
2022-08-25T05:20:27.720Z,8.23
2022-08-25T05:26:32.466Z,13.33
2022-08-25T05:32:34.452Z,7.30
2022-08-25T05:38:37.818Z,8.60
2022-08-25T05:44:42.919Z,12.57
2022-08-25T05:50:55.885Z,4.40
2022-08-25T05:56:58.606Z,11.77
2022-08-25T06:03:01.162Z,5.73
2022-08-25T06:09:06.493Z,14.03
2022-08-25T06:15:09.606Z,5.90
2022-08-25T06:21:14.520Z,8.47
2022-08-25T06:27:16.627Z,6.80
2022-08-25T06:33:18.961Z,11.60
2022-08-25T06:39:21.765Z,9.87
2022-08-25T06:45:24.892Z,7.57
2022-08-25T06:51:27.572Z,4.70
2022-08-25T06:57:29.712Z,6.00
2022-08-25T07:03:33.217Z,3.73
2022-08-25T07:09:38.670Z,5.77
2022-08-25T07:15:43.818Z,6.73
2022-08-25T07:21:49.893Z,10.33
2022-08-25T07:27:56.983Z,7.60
2022-08-25T07:34:19.536Z,8.17
2022-08-25T07:40:32.361Z,7.33
2022-08-25T07:46:34.953Z,6.30
2022-08-25T07:52:37.119Z,10.07
2022-08-25T07:58:42.199Z,5.23
2022-08-25T08:04:45.387Z,7.33
2022-08-25T08:11:03.161Z,8.80
2022-08-25T08:17:09.485Z,7.80
2022-08-25T08:23:12.473Z,6.23
2022-08-25T08:29:15.068Z,9.67
2022-08-25T08:35:18.979Z,9.20
2022-08-25T08:42:17.344Z,9.97
2022-08-25T08:48:46.992Z,11.53
2022-08-25T08:54:56.872Z,12.07
2022-08-25T09:00:59.581Z,13.20
2022-08-25T09:07:11.035Z,11.60
2022-08-25T09:13:48.792Z,15.87
2022-08-25T09:20:29.430Z,10.83
2022-08-25T09:26:58.928Z,12.37
2022-08-25T09:33:05.255Z,16.93
2022-08-25T09:39:07.969Z,13.47
2022-08-25T09:45:14.845Z,13.20
2022-08-25T09:51:38.190Z,9.50
2022-08-25T09:57:52.939Z,8.90
2022-08-25T10:04:05.546Z,14.80
2022-08-25T10:10:41.979Z,17.43
2022-08-25T10:16:46.944Z,15.20
2022-08-25T10:22:51.380Z,17.40
2022-08-25T10:29:06.304Z,14.13
2022-08-25T10:35:32.418Z,13.60
2022-08-25T10:41:53.436Z,13.10
2022-08-25T10:48:41.894Z,12.80
2022-08-25T10:54:57.571Z,12.63
2022-08-25T11:01:18.855Z,10.90
2022-08-25T11:07:40.484Z,10.07
2022-08-25T11:14:09.194Z,19.40
2022-08-25T11:20:27.132Z,15.00
2022-08-25T11:26:36.856Z,10.10
2022-08-25T11:32:44.308Z,11.17
2022-08-25T11:39:11.565Z,8.50
2022-08-25T11:45:19.191Z,10.60
2022-08-25T11:51:45.128Z,9.60
2022-08-25T11:57:53.641Z,13.10
2022-08-25T12:04:34.111Z,7.30
2022-08-25T12:11:11.161Z,8.97
2022-08-25T12:17:25.410Z,7.57
2022-08-25T12:23:36.645Z,12.40
2022-08-25T12:29:47.215Z,6.63
2022-08-25T12:35:57.939Z,7.20
2022-08-25T12:42:12.768Z,11.50
2022-08-25T12:48:27.008Z,7.93
2022-08-25T12:55:11.485Z,7.87
2022-08-25T13:01:54.578Z,11.00
2022-08-25T13:08:15.954Z,9.50
2022-08-25T13:14:34.771Z,8.90
2022-08-25T13:20:40.308Z,6.40
2022-08-25T13:26:52.730Z,5.50
2022-08-25T13:32:54.858Z,7.43
2022-08-25T13:39:45.546Z,9.73
2022-08-25T13:45:50.543Z,6.10
2022-08-25T13:51:55.137Z,9.47
2022-08-25T13:57:59.335Z,10.53
2022-08-25T14:04:50.887Z,8.70
2022-08-25T14:11:14.897Z,10.23
2022-08-25T14:17:36.314Z,12.10
2022-08-25T14:23:40.772Z,10.03
2022-08-25T14:29:42.759Z,11.90
2022-08-25T14:35:53.747Z,13.40
2022-08-25T14:41:55.987Z,9.97
2022-08-25T14:48:10.418Z,11.30
2022-08-25T14:54:18.442Z,14.03
2022-08-25T15:00:21.247Z,12.87
2022-08-25T15:06:29.365Z,8.37
2022-08-25T15:12:46.526Z,8.60
2022-08-25T15:18:50.376Z,10.13
2022-08-25T15:24:52.786Z,17.67
2022-08-25T15:30:54.783Z,7.17
2022-08-25T15:36:58.469Z,12.03
2022-08-25T15:43:01.617Z,14.57
2022-08-25T15:49:05.324Z,15.27
2022-08-25T15:55:11.619Z,15.13
2022-08-25T16:01:19.711Z,13.73
2022-08-25T16:07:21.871Z,9.10
2022-08-25T16:13:24.532Z,9.93
2022-08-25T16:19:29.348Z,13.83
2022-08-25T16:25:32.342Z,12.63
2022-08-25T16:31:34.593Z,8.70
2022-08-25T16:37:36.795Z,13.20
2022-08-25T16:43:39.645Z,9.20
2022-08-25T16:49:42.377Z,10.73
2022-08-25T16:55:45.427Z,15.67
2022-08-25T17:01:47.528Z,12.67
2022-08-25T17:08:09.480Z,13.60
2022-08-25T17:14:18.169Z,16.77
2022-08-25T17:20:20.861Z,25.53
2022-08-25T17:26:27.995Z,13.00
2022-08-25T17:32:31.000Z,8.63
2022-08-25T17:38:33.778Z,17.70
2022-08-25T17:44:35.744Z,11.77
2022-08-25T17:50:40.661Z,11.03
2022-08-25T17:56:42.714Z,18.40
2022-08-25T18:02:45.326Z,22.60
2022-08-25T18:08:51.266Z,18.90
2022-08-25T18:14:54.996Z,15.10
2022-08-25T18:20:57.150Z,20.40
2022-08-25T18:26:59.350Z,9.40
2022-08-25T18:33:01.897Z,11.43
2022-08-25T18:39:23.597Z,12.50
2022-08-25T18:45:48.015Z,13.07
2022-08-25T18:51:50.405Z,19.03
2022-08-25T18:57:52.617Z,12.30
2022-08-25T19:03:54.615Z,26.77
2022-08-25T19:09:56.660Z,15.37
2022-08-25T19:15:59.398Z,16.33
2022-08-25T19:22:01.592Z,21.70
2022-08-25T19:28:09.081Z,20.10
2022-08-25T19:34:21.712Z,17.30
2022-08-25T19:40:25.341Z,15.63
2022-08-25T19:46:37.383Z,14.03
2022-08-25T19:52:40.280Z,18.43
2022-08-25T19:58:44.597Z,11.83
2022-08-25T20:04:50.331Z,23.90
2022-08-25T20:10:53.042Z,16.90
2022-08-25T20:16:58.734Z,25.17
2022-08-25T20:23:19.553Z,18.70
2022-08-25T20:29:21.627Z,17.77
2022-08-25T20:35:28.167Z,16.07
2022-08-25T20:41:30.148Z,27.40
2022-08-25T20:47:32.332Z,26.80
2022-08-25T20:53:37.194Z,18.23
2022-08-25T20:59:39.188Z,19.10
2022-08-25T21:05:43.262Z,20.33
2022-08-25T21:11:46.848Z,16.23
2022-08-25T21:17:54.478Z,18.80
2022-08-25T21:23:56.725Z,17.10
2022-08-25T21:29:59.808Z,26.87
2022-08-25T21:36:02.057Z,12.90
2022-08-25T21:42:07.161Z,22.03
2022-08-25T21:48:10.758Z,19.87
2022-08-25T21:54:18.226Z,26.00
2022-08-25T22:00:26.135Z,28.20
2022-08-25T22:06:29.465Z,22.80
2022-08-25T22:12:31.446Z,21.93
2022-08-25T22:18:33.468Z,20.87
2022-08-25T22:24:35.630Z,13.53
2022-08-25T22:30:38.776Z,14.27
2022-08-25T22:36:42.903Z,17.50
2022-08-25T22:42:48.050Z,25.83
2022-08-25T22:48:51.656Z,27.23
2022-08-25T22:54:54.583Z,23.53
2022-08-25T23:00:58.382Z,15.03
2022-08-25T23:07:00.485Z,27.03
2022-08-25T23:13:02.493Z,28.63
2022-08-25T23:19:13.753Z,21.57
2022-08-25T23:25:17.117Z,19.80
2022-08-25T23:31:20.173Z,20.93
2022-08-25T23:37:23.123Z,28.43
2022-08-25T23:43:25.731Z,14.17
2022-08-25T23:49:27.732Z,23.87
2022-08-25T23:55:34.014Z,19.67
